Time;durP1;ratioP1;P1;durP2;ratioP2;P2;SDS_P1;SDS_P2;PMS_P1;PMS_P2;Temp;Humidity;BMP_temperature;BMP_pressure;BME280_temperature;BME280_humidity;BME280_pressure;Samples;Min_cycle;Max_cycle;Signal;HPM_P1;HPM_P2
2022/07/20 00:00:01;;;;;;;19.80;8.45;;;;;;;;;;5061223;28;20068;-78
2022/07/20 00:02:27;;;;;;;21.08;7.68;;;;;;;;;;5060211;28;20028;-80
2022/07/20 00:04:53;;;;;;;13.75;7.13;;;;;;;;;;5059002;28;20028;-78
2022/07/20 00:07:19;;;;;;;15.80;6.90;;;;;;;;;;5069945;28;20048;-79
2022/07/20 00:12:29;;;;;;;12.35;7.20;;;;;;;;;;5059339;28;20031;-78
2022/07/20 00:14:55;;;;;;;11.50;6.40;;;;;;;;;;5056314;28;20480;-79
2022/07/20 00:17:21;;;;;;;18.02;7.70;;;;;;;;;;5056302;28;20029;-77
2022/07/20 00:19:47;;;;;;;11.85;7.00;;;;;;;;;;5056196;28;20032;-78
2022/07/20 00:22:13;;;;;;;13.60;6.88;;;;;;;;;;5058288;28;20054;-79
2022/07/20 00:24:39;;;;;;;13.40;6.60;;;;;;;;;;5059614;28;20493;-78
2022/07/20 00:27:05;;;;;;;12.15;6.72;;;;;;;;;;5057511;28;20386;-79
2022/07/20 00:29:31;;;;;;;15.93;7.25;;;;;;;;;;5057652;28;20030;-77
2022/07/20 00:31:57;;;;;;;14.68;8.13;;;;;;;;;;5058448;28;20028;-78
2022/07/20 00:34:23;;;;;;;15.90;7.10;;;;;;;;;;5058742;28;20178;-78
2022/07/20 00:36:49;;;;;;;20.65;6.88;;;;;;;;;;5063463;28;20029;-80
2022/07/20 00:39:15;;;;;;;20.48;7.55;;;;;;;;;;5059491;28;20025;-77
2022/07/20 00:41:41;;;;;;;13.82;7.15;;;;;;;;;;5059485;28;20363;-78
2022/07/20 00:44:08;;;;;;;17.88;7.85;;;;;;;;;;5059721;28;20025;-79
2022/07/20 00:46:35;;;;;;;19.05;7.07;;;;;;;;;;5061953;28;20037;-78
2022/07/20 00:49:01;;;;;;;12.88;7.30;;;;;;;;;;5061022;28;20035;-80
2022/07/20 00:51:28;;;;;;;15.82;7.28;;;;;;;;;;5068950;28;20017;-81
2022/07/20 00:53:54;;;;;;;13.02;7.32;;;;;;;;;;5079610;28;20032;-80
2022/07/20 00:56:20;;;;;;;11.75;6.90;;;;;;;;;;5079075;28;20032;-79
2022/07/20 00:58:46;;;;;;;14.27;6.80;;;;;;;;;;5079007;28;20027;-80
2022/07/20 01:01:13;;;;;;;15.98;6.82;;;;;;;;;;5078496;28;20055;-81
2022/07/20 01:03:40;;;;;;;10.73;6.50;;;;;;;;;;5067535;28;20064;-78
2022/07/20 01:06:06;;;;;;;11.52;6.45;;;;;;;;;;5065660;28;20048;-77
2022/07/20 01:08:32;;;;;;;15.57;6.68;;;;;;;;;;5066966;28;20052;-79
2022/07/20 01:10:58;;;;;;;9.50;6.32;;;;;;;;;;5066098;28;20264;-78
2022/07/20 01:13:24;;;;;;;15.23;7.20;;;;;;;;;;5061833;28;20029;-79
2022/07/20 01:15:50;;;;;;;12.32;6.68;;;;;;;;;;5057068;28;20543;-79
2022/07/20 01:18:16;;;;;;;14.57;7.00;;;;;;;;;;5054024;28;20029;-78
2022/07/20 01:20:45;;;;;;;12.38;6.70;;;;;;;;;;5054533;28;20478;-78
2022/07/20 01:23:11;;;;;;;12.65;7.22;;;;;;;;;;5053894;28;20020;-79
2022/07/20 01:25:37;;;;;;;11.88;6.75;;;;;;;;;;5054499;28;20029;-78
2022/07/20 01:28:07;;;;;;;16.52;6.78;;;;;;;;;;5057127;28;20036;-78
2022/07/20 01:30:33;;;;;;;14.35;7.03;;;;;;;;;;5057021;28;20060;-79
2022/07/20 01:32:59;;;;;;;15.23;7.13;;;;;;;;;;5052003;28;20095;-79
2022/07/20 01:35:25;;;;;;;11.50;6.85;;;;;;;;;;5052978;28;20116;-77
2022/07/20 01:37:51;;;;;;;14.02;6.30;;;;;;;;;;5054177;28;20123;-77
2022/07/20 01:40:17;;;;;;;14.80;6.93;;;;;;;;;;5053029;28;20083;-79
2022/07/20 01:42:43;;;;;;;13.05;6.90;;;;;;;;;;5055396;28;20478;-79
2022/07/20 01:45:09;;;;;;;16.95;7.05;;;;;;;;;;5055325;28;20381;-79
2022/07/20 01:47:35;;;;;;;10.85;6.80;;;;;;;;;;5054996;28;20028;-79
2022/07/20 01:50:01;;;;;;;25.40;6.90;;;;;;;;;;5055073;28;20031;-79
2022/07/20 01:52:27;;;;;;;26.95;7.10;;;;;;;;;;5055032;28;20044;-79
2022/07/20 01:54:53;;;;;;;14.07;7.57;;;;;;;;;;5056006;28;20021;-80
2022/07/20 01:57:19;;;;;;;14.35;7.30;;;;;;;;;;5056201;28;20032;-78
2022/07/20 01:59:45;;;;;;;10.32;7.05;;;;;;;;;;5061734;28;20035;-79
2022/07/20 02:02:11;;;;;;;11.27;6.88;;;;;;;;;;5072268;28;20089;-78
2022/07/20 02:04:37;;;;;;;15.55;7.20;;;;;;;;;;5054527;28;20032;-77
2022/07/20 02:07:03;;;;;;;13.73;7.10;;;;;;;;;;5053291;28;20021;-77
2022/07/20 02:09:29;;;;;;;12.23;7.32;;;;;;;;;;5053061;28;20056;-78
2022/07/20 02:11:55;;;;;;;16.45;6.70;;;;;;;;;;5053410;28;20474;-79
2022/07/20 02:14:21;;;;;;;11.27;6.60;;;;;;;;;;5053810;28;20127;-78
2022/07/20 02:16:47;;;;;;;13.38;7.25;;;;;;;;;;5053894;28;20402;-78
2022/07/20 02:19:13;;;;;;;18.13;7.40;;;;;;;;;;5057192;28;20108;-79
2022/07/20 02:21:39;;;;;;;16.63;7.32;;;;;;;;;;5053863;28;20396;-78
2022/07/20 02:24:05;;;;;;;13.52;7.78;;;;;;;;;;5052664;28;20474;-77
2022/07/20 02:26:31;;;;;;;14.52;6.70;;;;;;;;;;5053007;28;20434;-77
2022/07/20 02:28:57;;;;;;;13.82;7.75;;;;;;;;;;5055254;28;20067;-78
2022/07/20 02:31:23;;;;;;;10.50;6.93;;;;;;;;;;5053732;28;20060;-78
2022/07/20 02:33:50;;;;;;;21.90;7.03;;;;;;;;;;5054095;28;20033;-77
2022/07/20 02:36:16;;;;;;;18.20;7.47;;;;;;;;;;5053923;28;20029;-78
2022/07/20 02:38:42;;;;;;;15.00;7.63;;;;;;;;;;5057167;28;20033;-79
2022/07/20 02:41:08;;;;;;;15.93;6.90;;;;;;;;;;5055849;28;20036;-78
2022/07/20 02:43:34;;;;;;;17.67;7.28;;;;;;;;;;5056804;28;20272;-78
2022/07/20 02:46:00;;;;;;;13.77;7.07;;;;;;;;;;5056426;28;20049;-78
2022/07/20 02:48:26;;;;;;;11.25;6.75;;;;;;;;;;5054557;28;20085;-79
2022/07/20 02:50:52;;;;;;;21.20;7.28;;;;;;;;;;5061000;28;20095;-78
2022/07/20 02:53:18;;;;;;;18.55;7.18;;;;;;;;;;5053457;28;20013;-78
2022/07/20 02:55:45;;;;;;;12.18;6.97;;;;;;;;;;5052307;28;20040;-79
2022/07/20 02:58:11;;;;;;;11.75;7.10;;;;;;;;;;5055950;28;20478;-78
2022/07/20 03:00:38;;;;;;;12.43;6.82;;;;;;;;;;5053254;28;20075;-77
2022/07/20 03:03:04;;;;;;;15.82;7.07;;;;;;;;;;5052043;28;20032;-78
2022/07/20 03:05:31;;;;;;;16.30;6.97;;;;;;;;;;5053076;28;20048;-78
2022/07/20 03:07:57;;;;;;;13.52;6.78;;;;;;;;;;5058291;28;20025;-78
2022/07/20 03:10:23;;;;;;;15.77;7.25;;;;;;;;;;5059425;28;20036;-79
2022/07/20 03:12:50;;;;;;;14.00;6.40;;;;;;;;;;5058964;28;20071;-78
2022/07/20 03:15:16;;;;;;;13.07;7.47;;;;;;;;;;5058875;28;20081;-78
2022/07/20 03:17:43;;;;;;;10.50;7.00;;;;;;;;;;5059183;28;20428;-78
2022/07/20 03:20:09;;;;;;;16.08;7.60;;;;;;;;;;5057414;28;20029;-78
2022/07/20 03:22:35;;;;;;;14.30;7.35;;;;;;;;;;5068273;28;20033;-78
2022/07/20 03:25:01;;;;;;;16.30;7.45;;;;;;;;;;5081926;28;20047;-79
2022/07/20 03:27:27;;;;;;;12.75;7.70;;;;;;;;;;5083312;28;20021;-81
2022/07/20 03:29:53;;;;;;;12.73;6.75;;;;;;;;;;5083676;28;20055;-79
2022/07/20 03:32:19;;;;;;;17.98;6.95;;;;;;;;;;5083182;28;20016;-80
2022/07/20 03:34:45;;;;;;;14.25;6.78;;;;;;;;;;5076580;28;20040;-77
2022/07/20 03:37:11;;;;;;;13.00;7.57;;;;;;;;;;5060634;28;20063;-78
2022/07/20 03:39:37;;;;;;;22.23;7.68;;;;;;;;;;5060708;28;20104;-78
2022/07/20 03:42:03;;;;;;;15.60;7.32;;;;;;;;;;5058829;28;20071;-77
2022/07/20 03:44:29;;;;;;;11.80;7.28;;;;;;;;;;5059058;28;20031;-77
2022/07/20 03:46:55;;;;;;;12.38;7.45;;;;;;;;;;5058427;28;20035;-77
2022/07/20 03:49:21;;;;;;;10.80;7.07;;;;;;;;;;5059284;28;20068;-78
2022/07/20 03:51:47;;;;;;;13.85;7.18;;;;;;;;;;5060433;28;20052;-77
2022/07/20 03:54:13;;;;;;;18.65;7.50;;;;;;;;;;5066705;28;20021;-77
2022/07/20 03:56:42;;;;;;;14.30;6.63;;;;;;;;;;5063746;28;20032;-79
2022/07/20 03:59:08;;;;;;;18.00;7.30;;;;;;;;;;5059184;28;20021;-78
2022/07/20 04:01:34;;;;;;;15.10;7.90;;;;;;;;;;5067199;28;20025;-77
2022/07/20 04:04:00;;;;;;;12.75;7.95;;;;;;;;;;5063653;28;20021;-79
2022/07/20 04:06:26;;;;;;;21.05;7.70;;;;;;;;;;5070516;28;20021;-77
2022/07/20 04:08:52;;;;;;;14.70;7.55;;;;;;;;;;5064218;28;20033;-78
2022/07/20 04:11:18;;;;;;;11.73;8.02;;;;;;;;;;5063016;28;20029;-78
2022/07/20 04:13:44;;;;;;;13.48;7.45;;;;;;;;;;5061158;28;20155;-78
2022/07/20 04:16:10;;;;;;;16.42;8.00;;;;;;;;;;5058277;28;20071;-78
2022/07/20 04:18:36;;;;;;;16.60;7.78;;;;;;;;;;5055973;28;20036;-76
2022/07/20 04:21:02;;;;;;;17.35;7.78;;;;;;;;;;5056476;28;20025;-77
2022/07/20 04:23:28;;;;;;;14.18;7.90;;;;;;;;;;5057302;28;20029;-78
2022/07/20 04:25:54;;;;;;;19.25;8.02;;;;;;;;;;5062944;28;20199;-79
2022/07/20 04:28:20;;;;;;;13.30;7.38;;;;;;;;;;5060600;28;20036;-78
2022/07/20 04:30:46;;;;;;;11.80;7.25;;;;;;;;;;5055124;28;20025;-78
2022/07/20 04:33:12;;;;;;;12.15;7.40;;;;;;;;;;5054855;28;20025;-78
2022/07/20 04:35:38;;;;;;;12.20;7.22;;;;;;;;;;5055051;28;20124;-78
2022/07/20 04:38:04;;;;;;;17.95;8.68;;;;;;;;;;5056801;28;20522;-79
2022/07/20 04:40:30;;;;;;;13.73;6.95;;;;;;;;;;5060361;28;20382;-78
2022/07/20 04:42:56;;;;;;;14.40;7.70;;;;;;;;;;5058929;28;20074;-78
2022/07/20 04:45:22;;;;;;;12.15;7.03;;;;;;;;;;5056885;28;20032;-78
2022/07/20 04:47:48;;;;;;;15.35;7.72;;;;;;;;;;5058274;28;20029;-78
2022/07/20 04:50:14;;;;;;;13.80;7.32;;;;;;;;;;5054326;28;20079;-78
2022/07/20 04:52:40;;;;;;;16.75;7.28;;;;;;;;;;5055840;28;20086;-77
2022/07/20 04:55:07;;;;;;;13.90;7.35;;;;;;;;;;5056906;28;20029;-78
2022/07/20 04:57:32;;;;;;;13.45;7.00;;;;;;;;;;5054563;28;20543;-77
2022/07/20 04:59:59;;;;;;;24.17;12.10;;;;;;;;;;5055428;28;20041;-78
2022/07/20 05:02:25;;;;;;;15.45;10.38;;;;;;;;;;5054725;28;20029;-78
2022/07/20 05:04:51;;;;;;;14.23;8.10;;;;;;;;;;5055461;28;20021;-79
2022/07/20 05:07:17;;;;;;;12.15;7.68;;;;;;;;;;5055451;28;20021;-78
2022/07/20 05:09:42;;;;;;;13.98;7.00;;;;;;;;;;5056340;28;20070;-78
2022/07/20 05:12:08;;;;;;;20.30;7.35;;;;;;;;;;5057583;28;20029;-78
2022/07/20 05:14:34;;;;;;;15.20;6.85;;;;;;;;;;5057160;28;20131;-78
2022/07/20 05:17:00;;;;;;;18.20;7.43;;;;;;;;;;5055922;28;20025;-78
2022/07/20 05:19:26;;;;;;;17.83;7.30;;;;;;;;;;5056614;28;20128;-77
2022/07/20 05:21:53;;;;;;;13.68;6.90;;;;;;;;;;5064905;28;20025;-76
2022/07/20 05:24:19;;;;;;;15.20;6.97;;;;;;;;;;5073518;28;20512;-77
2022/07/20 05:26:45;;;;;;;15.50;6.85;;;;;;;;;;5069801;28;20024;-76
2022/07/20 05:29:11;;;;;;;19.52;6.90;;;;;;;;;;5061759;28;20029;-77
2022/07/20 05:31:37;;;;;;;14.38;6.90;;;;;;;;;;5060859;28;20472;-76
2022/07/20 05:34:03;;;;;;;17.55;7.65;;;;;;;;;;5073391;28;20020;-76
2022/07/20 05:36:29;;;;;;;12.48;6.82;;;;;;;;;;5068489;28;20085;-78
2022/07/20 05:38:55;;;;;;;13.57;6.50;;;;;;;;;;5057774;28;20478;-76
2022/07/20 05:41:21;;;;;;;12.25;6.53;;;;;;;;;;5057806;28;20021;-77
2022/07/20 05:43:47;;;;;;;14.73;6.80;;;;;;;;;;5058510;28;20060;-77
2022/07/20 05:46:13;;;;;;;11.25;6.40;;;;;;;;;;5063942;28;20021;-77
2022/07/20 05:48:39;;;;;;;19.17;7.28;;;;;;;;;;5058147;28;20017;-76
2022/07/20 05:51:06;;;;;;;10.15;6.93;;;;;;;;;;5063840;28;20085;-77
2022/07/20 05:53:31;;;;;;;15.57;6.78;;;;;;;;;;5064477;28;20054;-77
2022/07/20 05:55:57;;;;;;;14.80;7.07;;;;;;;;;;5075051;28;20037;-76
2022/07/20 05:58:24;;;;;;;12.73;7.05;;;;;;;;;;5077597;28;20183;-78
2022/07/20 06:00:50;;;;;;;13.40;6.28;;;;;;;;;;5076139;28;20035;-79
2022/07/20 06:03:16;;;;;;;11.93;6.93;;;;;;;;;;5077861;28;20013;-77
2022/07/20 06:05:42;;;;;;;18.17;7.00;;;;;;;;;;5077782;28;20017;-78
2022/07/20 06:08:08;;;;;;;18.65;6.60;;;;;;;;;;5067672;28;20044;-76
2022/07/20 06:10:36;;;;;;;24.42;7.22;;;;;;;;;;5059726;28;20025;-76
2022/07/20 06:13:02;;;;;;;16.65;6.43;;;;;;;;;;5059923;28;20021;-76
2022/07/20 06:15:28;;;;;;;19.33;6.47;;;;;;;;;;5061690;28;20462;-76
2022/07/20 06:17:55;;;;;;;19.08;6.63;;;;;;;;;;5059402;28;20032;-76
2022/07/20 06:20:21;;;;;;;20.02;7.70;;;;;;;;;;5057238;28;20028;-76
2022/07/20 06:22:47;;;;;;;22.55;7.75;;;;;;;;;;5057398;28;20101;-76
2022/07/20 06:25:14;;;;;;;16.67;6.63;;;;;;;;;;5065411;28;20040;-76
2022/07/20 06:27:40;;;;;;;17.63;7.43;;;;;;;;;;5057824;28;20025;-76
2022/07/20 06:30:07;;;;;;;22.98;6.32;;;;;;;;;;5059124;28;20036;-77
2022/07/20 06:32:34;;;;;;;15.98;6.53;;;;;;;;;;5058195;28;20084;-77
2022/07/20 06:35:00;;;;;;;11.88;6.45;;;;;;;;;;5057290;28;20530;-77
2022/07/20 06:37:25;;;;;;;18.70;6.72;;;;;;;;;;5057761;28;20045;-77
2022/07/20 06:39:51;;;;;;;15.68;6.32;;;;;;;;;;5055556;28;20108;-77
2022/07/20 06:42:20;;;;;;;18.05;6.03;;;;;;;;;;5057565;28;20024;-77
2022/07/20 06:44:46;;;;;;;17.77;6.68;;;;;;;;;;5059755;28;20419;-76
2022/07/20 06:47:12;;;;;;;16.67;6.50;;;;;;;;;;5061298;28;20090;-77
2022/07/20 06:49:38;;;;;;;19.35;6.50;;;;;;;;;;5061936;28;20025;-77
2022/07/20 06:52:04;;;;;;;18.63;7.38;;;;;;;;;;5064088;28;20051;-77
2022/07/20 06:54:30;;;;;;;16.70;6.63;;;;;;;;;;5064030;28;20315;-77
2022/07/20 06:56:56;;;;;;;14.48;6.25;;;;;;;;;;5061772;28;20028;-77
2022/07/20 06:59:22;;;;;;;12.75;6.50;;;;;;;;;;5063996;28;20033;-77
2022/07/20 07:01:48;;;;;;;20.10;7.10;;;;;;;;;;5066711;28;20059;-77
2022/07/20 07:04:14;;;;;;;21.17;6.55;;;;;;;;;;5070306;28;20152;-76
2022/07/20 07:06:40;;;;;;;18.27;6.13;;;;;;;;;;5070867;28;20032;-78
2022/07/20 07:09:08;;;;;;;19.55;6.03;;;;;;;;;;5069828;28;20029;-77
2022/07/20 07:11:34;;;;;;;15.85;5.65;;;;;;;;;;5065177;28;20044;-78
2022/07/20 07:14:00;;;;;;;26.90;5.93;;;;;;;;;;5069379;28;20032;-76
2022/07/20 07:16:26;;;;;;;19.48;6.45;;;;;;;;;;5071250;28;20026;-77
2022/07/20 07:18:52;;;;;;;14.65;6.30;;;;;;;;;;5066607;28;20033;-76
2022/07/20 07:21:18;;;;;;;14.27;5.70;;;;;;;;;;5062432;28;20029;-77
2022/07/20 07:23:49;;;;;;;12.77;6.15;;;;;;;;;;5061387;28;20032;-76
2022/07/20 07:26:16;;;;;;;19.35;6.10;;;;;;;;;;5063662;28;20051;-76
2022/07/20 07:28:42;;;;;;;17.70;6.18;;;;;;;;;;5067097;28;20065;-77
2022/07/20 07:31:08;;;;;;;21.88;6.10;;;;;;;;;;5067065;28;20025;-76
2022/07/20 07:33:34;;;;;;;23.40;6.32;;;;;;;;;;5065917;28;20504;-76
2022/07/20 07:36:00;;;;;;;14.40;5.82;;;;;;;;;;5064359;28;20355;-76
2022/07/20 07:38:26;;;;;;;13.90;5.47;;;;;;;;;;5065387;28;20052;-76
2022/07/20 07:40:52;;;;;;;24.65;5.95;;;;;;;;;;5066856;28;20107;-75
2022/07/20 07:43:18;;;;;;;15.38;5.75;;;;;;;;;;5064577;28;20024;-76
2022/07/20 07:45:44;;;;;;;9.65;5.00;;;;;;;;;;5064584;28;20032;-76
2022/07/20 07:48:10;;;;;;;15.25;5.55;;;;;;;;;;5072504;28;20021;-75
2022/07/20 07:50:37;;;;;;;21.52;6.22;;;;;;;;;;5073417;28;20022;-76
2022/07/20 07:53:03;;;;;;;18.55;5.55;;;;;;;;;;5069750;28;20025;-77
2022/07/20 07:55:29;;;;;;;22.98;6.00;;;;;;;;;;5068022;28;20025;-77
2022/07/20 07:57:55;;;;;;;19.92;5.82;;;;;;;;;;5066777;28;20035;-77
2022/07/20 08:00:21;;;;;;;16.02;6.38;;;;;;;;;;5070624;28;20509;-77
2022/07/20 08:02:48;;;;;;;17.38;7.43;;;;;;;;;;5071411;28;20101;-76
2022/07/20 08:05:14;;;;;;;10.75;5.70;;;;;;;;;;5070539;28;20075;-76
2022/07/20 08:07:41;;;;;;;12.02;5.70;;;;;;;;;;5068964;28;20051;-75
2022/07/20 08:10:07;;;;;;;21.00;5.85;;;;;;;;;;5074087;28;20033;-75
2022/07/20 08:12:34;;;;;;;26.10;6.05;;;;;;;;;;5076192;28;20025;-78
2022/07/20 08:15:00;;;;;;;12.77;5.53;;;;;;;;;;5076858;28;20031;-75
2022/07/20 08:17:26;;;;;;;12.80;5.70;;;;;;;;;;5077540;28;20041;-75
2022/07/20 08:19:52;;;;;;;11.32;5.30;;;;;;;;;;5076364;28;20021;-75
2022/07/20 08:22:19;;;;;;;10.95;5.35;;;;;;;;;;5069531;28;20025;-77
2022/07/20 08:24:45;;;;;;;17.65;5.10;;;;;;;;;;5071382;28;20472;-77
2022/07/20 08:27:11;;;;;;;17.00;5.88;;;;;;;;;;5077102;28;20033;-76
2022/07/20 08:29:37;;;;;;;17.73;5.60;;;;;;;;;;5077170;28;20035;-76
2022/07/20 08:32:03;;;;;;;16.17;5.82;;;;;;;;;;5076921;28;20021;-76
2022/07/20 08:34:29;;;;;;;21.83;7.82;;;;;;;;;;5074974;28;20037;-75
2022/07/20 08:36:55;;;;;;;15.77;5.75;;;;;;;;;;5076285;28;20043;-75
2022/07/20 08:39:22;;;;;;;11.10;5.68;;;;;;;;;;5073427;28;20052;-76
2022/07/20 08:41:48;;;;;;;19.15;6.38;;;;;;;;;;5071993;28;20104;-77
2022/07/20 08:44:14;;;;;;;16.15;5.53;;;;;;;;;;5069374;28;20025;-77
2022/07/20 08:46:43;;;;;;;14.38;5.20;;;;;;;;;;5075393;28;20047;-76
2022/07/20 08:49:09;;;;;;;13.50;5.40;;;;;;;;;;5079764;28;20021;-75
2022/07/20 08:51:35;;;;;;;19.20;5.80;;;;;;;;;;5070416;28;20036;-77
2022/07/20 08:54:01;;;;;;;22.35;6.07;;;;;;;;;;5066201;28;20025;-77
2022/07/20 08:56:27;;;;;;;11.80;5.97;;;;;;;;;;5077009;28;20020;-75
2022/07/20 08:58:53;;;;;;;18.08;5.25;;;;;;;;;;5078210;28;20016;-77
2022/07/20 09:01:19;;;;;;;14.73;5.50;;;;;;;;;;5065485;28;20025;-78
2022/07/20 09:04:03;;;;;;;20.38;5.28;;;;;;;;;;5064474;28;20028;-77
2022/07/20 09:06:30;;;;;;;15.75;5.80;;;;;;;;;;5062124;28;20044;-77
2022/07/20 09:08:59;;;;;;;15.98;6.18;;;;;;;;;;5062374;28;20032;-77
2022/07/20 09:11:25;;;;;;;17.67;6.38;;;;;;;;;;5078541;28;20075;-76
2022/07/20 09:13:51;;;;;;;18.70;7.32;;;;;;;;;;5070649;28;20020;-76
2022/07/20 09:16:30;;;;;;;17.85;6.25;;;;;;;;;;5078655;28;20043;-76
2022/07/20 09:18:56;;;;;;;19.90;6.63;;;;;;;;;;5062253;28;20037;-78
2022/07/20 09:21:29;;;;;;;13.48;5.85;;;;;;;;;;5060629;28;20074;-77
2022/07/20 09:23:56;;;;;;;20.30;6.60;;;;;;;;;;5060484;28;20021;-76
2022/07/20 09:26:24;;;;;;;11.77;5.65;;;;;;;;;;5060874;28;20498;-76
2022/07/20 09:28:53;;;;;;;21.35;6.60;;;;;;;;;;5060134;28;20017;-77
2022/07/20 09:31:33;;;;;;;20.40;6.35;;;;;;;;;;5060021;28;20592;-79
2022/07/20 09:34:00;;;;;;;14.98;6.05;;;;;;;;;;5059774;28;20013;-76
2022/07/20 09:36:30;;;;;;;15.50;6.65;;;;;;;;;;5059105;28;20028;-76
2022/07/20 09:39:09;;;;;;;12.90;5.88;;;;;;;;;;5059806;28;20029;-77
2022/07/20 09:41:37;;;;;;;15.27;6.43;;;;;;;;;;5059247;28;20052;-76
2022/07/20 09:44:07;;;;;;;14.93;5.88;;;;;;;;;;5059916;28;20049;-76
2022/07/20 09:46:34;;;;;;;17.60;6.30;;;;;;;;;;5062289;28;20040;-77
2022/07/20 09:49:04;;;;;;;19.05;6.25;;;;;;;;;;5062328;28;20049;-76
2022/07/20 09:51:31;;;;;;;19.02;6.60;;;;;;;;;;5064569;28;20040;-77
2022/07/20 09:53:59;;;;;;;15.00;5.85;;;;;;;;;;5061328;28;20020;-76
2022/07/20 09:56:26;;;;;;;16.63;5.88;;;;;;;;;;5058658;28;20036;-77
2022/07/20 09:58:54;;;;;;;17.70;6.57;;;;;;;;;;5060193;28;20047;-76
2022/07/20 10:01:22;;;;;;;14.98;5.68;;;;;;;;;;5060580;28;20043;-78
2022/07/20 10:03:49;;;;;;;12.18;6.25;;;;;;;;;;5062084;28;20029;-77
2022/07/20 10:06:16;;;;;;;19.45;5.97;;;;;;;;;;5067098;28;20013;-76
2022/07/20 10:08:42;;;;;;;20.02;6.38;;;;;;;;;;5072110;28;20039;-77
2022/07/20 10:11:08;;;;;;;15.90;5.93;;;;;;;;;;5065790;28;20024;-76
2022/07/20 10:13:35;;;;;;;17.42;5.88;;;;;;;;;;5070769;28;20145;-77
2022/07/20 10:16:06;;;;;;;20.83;6.45;;;;;;;;;;5070168;28;20032;-77
2022/07/20 10:18:32;;;;;;;20.10;6.18;;;;;;;;;;5069693;28;20033;-77
2022/07/20 10:20:58;;;;;;;15.77;5.60;;;;;;;;;;5072098;28;20051;-77
2022/07/20 10:23:26;;;;;;;13.45;5.90;;;;;;;;;;5064814;28;20021;-76
2022/07/20 10:25:52;;;;;;;24.92;6.07;;;;;;;;;;5058658;28;20021;-77
2022/07/20 10:28:24;;;;;;;18.27;6.00;;;;;;;;;;5057523;28;20032;-77
2022/07/20 10:31:02;;;;;;;15.88;5.65;;;;;;;;;;5054921;28;20421;-77
2022/07/20 10:33:29;;;;;;;14.75;5.90;;;;;;;;;;5058487;28;20024;-76
2022/07/20 10:36:41;;;;;;;18.55;6.78;;;;;;;;;;5055922;28;20062;-77
2022/07/20 10:38:42;;;;;;;16.52;5.75;;;;;;;;;;5054723;28;20508;-76
2022/07/20 10:44:12;;;;;;;17.33;5.93;;;;;;;;;;5058033;28;20036;-76
2022/07/20 10:46:38;;;;;;;13.05;5.43;;;;;;;;;;5057009;28;20021;-76
2022/07/20 10:49:04;;;;;;;19.83;5.43;;;;;;;;;;5056996;28;20074;-77
2022/07/20 10:51:30;;;;;;;20.42;5.65;;;;;;;;;;5055422;28;20082;-77
2022/07/20 10:53:56;;;;;;;13.70;5.45;;;;;;;;;;5057477;28;20032;-75
2022/07/20 10:56:31;;;;;;;15.15;5.22;;;;;;;;;;5067412;28;20020;-76
2022/07/20 10:59:00;;;;;;;13.70;4.78;;;;;;;;;;5076686;28;20171;-76
2022/07/20 11:01:26;;;;;;;14.05;5.00;;;;;;;;;;5059689;28;20074;-76
2022/07/20 11:03:52;;;;;;;16.85;4.88;;;;;;;;;;5055876;28;20056;-76
2022/07/20 11:06:23;;;;;;;17.08;5.45;;;;;;;;;;5056632;28;20032;-76
2022/07/20 11:08:54;;;;;;;18.35;4.80;;;;;;;;;;5056871;28;20043;-77
2022/07/20 11:11:21;;;;;;;12.15;4.80;;;;;;;;;;5057113;28;20025;-77
2022/07/20 11:13:47;;;;;;;11.85;5.05;;;;;;;;;;5055511;28;20603;-76
2022/07/20 11:16:13;;;;;;;8.57;4.40;;;;;;;;;;5054402;28;20101;-76
2022/07/20 11:18:39;;;;;;;11.07;5.07;;;;;;;;;;5054781;28;20021;-77
2022/07/20 11:21:07;;;;;;;13.80;5.38;;;;;;;;;;5057784;22;20114;-78
2022/07/20 11:23:40;;;;;;;13.20;4.40;;;;;;;;;;5057897;28;20099;-77
2022/07/20 11:26:07;;;;;;;12.25;4.55;;;;;;;;;;5055537;28;20032;-78
2022/07/20 11:28:44;;;;;;;12.32;4.40;;;;;;;;;;5056886;28;20033;-77
2022/07/20 11:31:10;;;;;;;11.38;5.03;;;;;;;;;;5064615;28;20052;-77
2022/07/20 11:33:37;;;;;;;15.60;4.18;;;;;;;;;;5062738;28;20025;-77
2022/07/20 11:36:08;;;;;;;9.93;3.60;;;;;;;;;;5060942;28;20029;-78
2022/07/20 11:38:35;;;;;;;8.88;3.80;;;;;;;;;;5062057;28;20021;-77
2022/07/20 11:41:02;;;;;;;9.73;4.35;;;;;;;;;;5047018;28;20021;-80
2022/07/20 11:43:28;;;;;;;8.52;3.83;;;;;;;;;;5060970;28;20159;-76
2022/07/20 11:45:54;;;;;;;14.55;4.28;;;;;;;;;;5061025;28;20021;-79
2022/07/20 11:48:24;;;;;;;10.55;4.43;;;;;;;;;;5058808;28;20383;-78
2022/07/20 11:50:50;;;;;;;9.00;4.53;;;;;;;;;;5060076;28;20060;-77
2022/07/20 11:53:23;;;;;;;12.73;5.05;;;;;;;;;;5063135;28;20474;-76
2022/07/20 11:55:49;;;;;;;7.55;4.38;;;;;;;;;;5039760;28;20017;-78
2022/07/20 11:58:15;;;;;;;15.98;4.60;;;;;;;;;;5045010;28;20481;-78
2022/07/20 12:00:42;;;;;;;18.70;4.47;;;;;;;;;;5039910;28;20017;-77
2022/07/20 12:03:08;;;;;;;12.48;4.35;;;;;;;;;;5058347;28;20029;-79
2022/07/20 12:05:34;;;;;;;10.73;4.20;;;;;;;;;;5057441;28;20433;-75
2022/07/20 12:08:13;;;;;;;10.68;4.20;;;;;;;;;;5039938;28;20021;-75
2022/07/20 12:10:41;;;;;;;12.13;5.10;;;;;;;;;;5062170;28;20032;-79
2022/07/20 12:13:08;;;;;;;9.35;4.28;;;;;;;;;;5066616;28;20075;-79
2022/07/20 12:15:37;;;;;;;10.88;4.47;;;;;;;;;;5046513;28;20501;-78
2022/07/20 12:18:04;;;;;;;13.68;4.35;;;;;;;;;;5062264;28;20021;-79
2022/07/20 12:20:30;;;;;;;15.90;4.53;;;;;;;;;;5041473;28;20045;-80
2022/07/20 12:23:04;;;;;;;15.65;4.05;;;;;;;;;;5058514;28;20078;-78
2022/07/20 12:25:37;;;;;;;15.80;4.18;;;;;;;;;;5057919;28;20017;-80
2022/07/20 12:28:03;;;;;;;;;;;;;;;;;;5060467;28;20052;-78
2022/07/20 12:30:34;;;;;;;16.17;4.55;;;;;;;;;;5061571;28;19975;-78
2022/07/20 12:33:11;;;;;;;9.40;4.38;;;;;;;;;;5059555;28;20493;-79
2022/07/20 12:35:37;;;;;;;11.95;4.97;;;;;;;;;;5044715;28;20028;-75
2022/07/20 12:38:03;;;;;;;9.57;4.15;;;;;;;;;;5065507;28;20029;-75
2022/07/20 12:40:30;;;;;;;6.82;4.28;;;;;;;;;;5063890;28;20037;-77
2022/07/20 12:42:56;;;;;;;14.98;4.97;;;;;;;;;;5066268;28;20025;-78
2022/07/20 12:45:22;;;;;;;12.30;4.10;;;;;;;;;;5066454;28;20420;-77
2022/07/20 12:47:48;;;;;;;12.55;4.20;;;;;;;;;;5066807;28;20029;-77
2022/07/20 12:50:14;;;;;;;7.32;3.88;;;;;;;;;;5066189;28;20021;-80
2022/07/20 12:52:40;;;;;;;25.25;4.20;;;;;;;;;;5050213;28;20033;-76
2022/07/20 12:55:06;;;;;;;9.55;4.22;;;;;;;;;;5068975;28;20055;-76
2022/07/20 12:57:32;;;;;;;10.82;4.45;;;;;;;;;;5069811;28;20032;-75
2022/07/20 12:59:58;;;;;;;14.75;4.18;;;;;;;;;;5067818;28;20024;-78
2022/07/20 13:02:24;;;;;;;11.43;3.63;;;;;;;;;;5047848;28;20025;-79
2022/07/20 13:04:50;;;;;;;10.10;4.05;;;;;;;;;;5042623;28;20482;-79
2022/07/20 13:07:16;;;;;;;17.23;4.22;;;;;;;;;;5062382;28;20036;-78
2022/07/20 13:09:42;;;;;;;8.85;3.63;;;;;;;;;;5061271;28;20096;-80
2022/07/20 13:12:08;;;;;;;14.15;3.55;;;;;;;;;;5042556;28;20025;-76
2022/07/20 13:14:34;;;;;;;10.30;3.42;;;;;;;;;;5060380;28;20031;-76
2022/07/20 13:17:00;;;;;;;6.88;3.42;;;;;;;;;;5071709;28;20032;-79
2022/07/20 13:19:26;;;;;;;8.68;3.50;;;;;;;;;;5046000;28;20025;-78
2022/07/20 13:21:52;;;;;;;10.98;3.55;;;;;;;;;;5044934;28;20059;-80
2022/07/20 13:24:18;;;;;;;9.98;3.63;;;;;;;;;;5063633;28;20017;-79
2022/07/20 13:26:44;;;;;;;6.47;3.20;;;;;;;;;;5062092;28;20024;-78
2022/07/20 13:29:11;;;;;;;7.53;3.40;;;;;;;;;;5043693;28;20136;-78
2022/07/20 13:31:37;;;;;;;11.45;6.07;;;;;;;;;;5056407;28;20050;-80
2022/07/20 13:34:03;;;;;;;12.85;3.53;;;;;;;;;;5065454;28;20021;-75
2022/07/20 13:36:29;;;;;;;15.20;4.05;;;;;;;;;;5066185;28;20085;-77
2022/07/20 13:38:55;;;;;;;13.13;3.72;;;;;;;;;;5069382;28;20048;-76
2022/07/20 13:41:22;;;;;;;13.38;3.90;;;;;;;;;;5043704;28;20024;-76
2022/07/20 13:43:48;;;;;;;9.18;3.85;;;;;;;;;;5042412;28;20051;-80
2022/07/20 13:46:14;;;;;;;11.93;3.88;;;;;;;;;;5064705;28;20021;-76
2022/07/20 13:48:41;;;;;;;13.60;3.97;;;;;;;;;;5072040;28;20027;-78
2022/07/20 13:51:07;;;;;;;12.23;3.70;;;;;;;;;;5067021;28;20029;-76
2022/07/20 13:53:33;;;;;;;7.88;3.85;;;;;;;;;;5061153;28;20462;-78
2022/07/20 13:56:02;;;;;;;13.60;3.33;;;;;;;;;;5067159;28;20039;-75
2022/07/20 13:58:33;;;;;;;8.90;3.90;;;;;;;;;;5047137;28;20024;-82
2022/07/20 14:00:59;;;;;;;8.65;3.38;;;;;;;;;;5043780;28;20033;-75
2022/07/20 14:03:25;;;;;;;11.27;3.05;;;;;;;;;;5044085;28;20021;-76
2022/07/20 14:05:51;;;;;;;13.73;3.63;;;;;;;;;;5047200;28;20027;-78
2022/07/20 14:08:20;;;;;;;7.43;2.85;;;;;;;;;;5061806;28;20516;-76
2022/07/20 14:10:46;;;;;;;6.50;2.97;;;;;;;;;;5042718;28;20025;-81
2022/07/20 14:13:12;;;;;;;9.93;3.35;;;;;;;;;;5041462;28;20097;-80
2022/07/20 14:15:39;;;;;;;7.75;3.20;;;;;;;;;;5060351;28;20078;-79
2022/07/20 14:18:05;;;;;;;6.78;3.38;;;;;;;;;;5062236;28;20079;-79
2022/07/20 14:20:31;;;;;;;10.32;3.30;;;;;;;;;;5061830;28;20028;-76
2022/07/20 14:22:57;;;;;;;17.25;5.35;;;;;;;;;;5044765;28;20028;-79
2022/07/20 14:25:23;;;;;;;17.05;6.20;;;;;;;;;;5060673;28;20398;-77
2022/07/20 14:27:49;;;;;;;24.13;6.72;;;;;;;;;;5061581;28;20103;-77
2022/07/20 14:30:15;;;;;;;31.00;8.82;;;;;;;;;;5063727;28;20060;-79
2022/07/20 14:32:41;;;;;;;32.03;7.45;;;;;;;;;;5046362;28;20109;-76